createdAt,value
2017-04-18T00:09:16.432Z,0
2017-04-18T00:19:16.501Z,0
2017-04-18T00:29:16.432Z,0
2017-04-18T00:39:16.543Z,0
2017-04-18T00:49:16.445Z,0
2017-04-18T00:59:16.786Z,0
2017-04-18T01:09:16.485Z,0
2017-04-18T01:19:16.532Z,0
2017-04-18T01:29:16.505Z,0
2017-04-18T01:39:16.651Z,0
2017-04-18T01:49:16.592Z,0
2017-04-18T01:59:16.552Z,0
2017-04-18T02:09:16.634Z,0
2017-04-18T02:19:16.558Z,0
2017-04-18T02:29:16.632Z,0
2017-04-18T02:39:16.613Z,0
2017-04-18T02:49:16.525Z,0
2017-04-18T02:59:16.592Z,0
2017-04-18T03:09:16.586Z,0
2017-04-18T03:19:16.625Z,0
2017-04-18T03:29:16.618Z,0
2017-04-18T03:39:16.560Z,0
2017-04-18T03:49:16.623Z,0
2017-04-18T03:59:16.557Z,0
2017-04-18T04:09:16.624Z,0
2017-04-18T04:19:16.589Z,0
2017-04-18T04:29:16.670Z,10
2017-04-18T04:39:16.627Z,15
2017-04-18T04:49:16.692Z,30
2017-04-18T04:59:16.651Z,40
2017-04-18T05:09:16.724Z,55
2017-04-18T05:19:16.653Z,65
2017-04-18T05:29:27.898Z,70
2017-04-18T05:39:16.682Z,90
2017-04-18T05:49:16.651Z,110
2017-04-18T05:59:16.731Z,155
2017-04-18T06:09:16.679Z,150
2017-04-18T06:19:16.733Z,165
2017-04-18T06:29:16.698Z,150
2017-04-18T06:39:16.767Z,150
2017-04-18T06:49:16.817Z,185
2017-04-18T06:59:16.769Z,185
2017-04-18T07:09:16.817Z,160
2017-04-18T07:19:16.809Z,240
2017-04-18T07:29:16.773Z,275
2017-04-18T07:39:16.843Z,435
2017-04-18T07:49:16.822Z,385
2017-04-18T07:59:16.752Z,935
2017-04-18T08:09:16.757Z,345
2017-04-18T08:19:18.244Z,245
2017-04-18T08:29:16.772Z,260
2017-04-18T08:39:16.864Z,205
2017-04-18T08:49:16.833Z,205
2017-04-18T08:59:16.796Z,315
2017-04-18T09:09:16.826Z,70
2017-04-18T09:19:16.866Z,305
2017-04-18T09:29:16.819Z,475
2017-04-18T09:39:16.849Z,310
2017-04-18T09:49:16.905Z,525
2017-04-18T09:59:16.854Z,425
2017-04-18T10:09:16.882Z,215
2017-04-18T10:19:16.879Z,215
2017-04-18T10:29:16.869Z,420
2017-04-18T10:39:16.889Z,205
2017-04-18T10:49:16.987Z,325
2017-04-18T10:59:16.996Z,330
2017-04-18T11:09:16.952Z,435
2017-04-18T11:19:17.243Z,385
2017-04-18T11:29:17.153Z,155
2017-04-18T11:39:16.945Z,245
2017-04-18T11:49:16.971Z,450
2017-04-18T11:59:16.994Z,430
2017-04-18T12:09:17.077Z,330
2017-04-18T12:19:17.080Z,80
2017-04-18T12:29:18.739Z,60
2017-04-18T12:39:20.899Z,50
2017-04-18T12:49:17.148Z,50
2017-04-18T13:07:35.730Z,195
2017-04-18T13:17:35.439Z,160
2017-04-18T13:27:36.173Z,205
2017-04-18T13:37:35.522Z,335
2017-04-18T13:47:35.532Z,85
2017-04-18T13:57:35.514Z,220
2017-04-18T14:07:35.486Z,140
2017-04-18T14:17:35.595Z,130
2017-04-18T14:27:35.546Z,140
2017-04-18T14:37:35.529Z,245
2017-04-18T14:47:35.416Z,175
2017-04-18T14:57:35.645Z,275
2017-04-18T15:07:35.460Z,150
2017-04-18T15:17:35.388Z,205
2017-04-18T15:27:35.470Z,190
2017-04-18T15:37:35.465Z,165
2017-04-18T15:47:35.731Z,175
2017-04-18T15:57:35.497Z,185
2017-04-18T16:07:35.568Z,130
2017-04-18T16:17:35.519Z,130
2017-04-18T16:27:35.498Z,105
2017-04-18T16:37:35.412Z,95
2017-04-18T16:47:35.709Z,85
2017-04-18T16:57:35.438Z,80
2017-04-18T17:07:35.496Z,65
2017-04-18T17:17:35.617Z,65
2017-04-18T17:27:35.406Z,35
2017-04-18T17:37:35.484Z,40
2017-04-18T17:47:35.694Z,50
2017-04-18T17:57:35.406Z,35
2017-04-18T18:07:35.470Z,25
2017-04-18T18:17:35.462Z,15
2017-04-18T18:27:35.489Z,5
2017-04-18T18:37:35.427Z,0
2017-04-18T18:47:35.425Z,0
2017-04-18T18:57:35.509Z,0
2017-04-18T19:07:35.887Z,0
2017-04-18T19:17:35.420Z,0
2017-04-18T19:27:35.586Z,0
2017-04-18T19:37:35.492Z,0
2017-04-18T19:47:35.481Z,0
2017-04-18T19:57:35.471Z,0
2017-04-18T20:07:35.417Z,0
2017-04-18T20:17:35.513Z,0
2017-04-18T20:27:35.565Z,0
2017-04-18T20:37:35.555Z,0
2017-04-18T20:47:35.487Z,0
2017-04-18T20:57:35.490Z,0
2017-04-18T21:07:35.499Z,0
2017-04-18T21:17:35.675Z,0
2017-04-18T21:27:35.763Z,0
2017-04-18T21:37:35.792Z,0
2017-04-18T21:47:35.703Z,0
2017-04-18T21:57:35.839Z,0
2017-04-18T22:07:35.918Z,0
2017-04-18T22:17:36.098Z,0
2017-04-18T22:27:35.865Z,0
2017-04-18T22:37:35.505Z,0
2017-04-18T22:47:35.609Z,0
2017-04-18T22:57:35.622Z,0
2017-04-18T23:07:35.490Z,0
2017-04-18T23:17:35.450Z,0
2017-04-18T23:27:35.516Z,0
2017-04-18T23:37:35.800Z,0
2017-04-18T23:47:35.544Z,0
2017-04-18T23:57:35.509Z,0
